sensor_id;sensor_type;location;lat;lon;timestamp;P1;durP1;ratioP1;P2;durP2;ratioP2
1206;SDS011;593;53.184;8.216;2023-11-19T00:00:34;11.10;;;9.40;;
1206;SDS011;593;53.184;8.216;2023-11-19T00:03:00;10.35;;;8.68;;
1206;SDS011;593;53.184;8.216;2023-11-19T00:05:26;10.23;;;8.60;;
1206;SDS011;593;53.184;8.216;2023-11-19T00:07:52;12.32;;;9.13;;
1206;SDS011;593;53.184;8.216;2023-11-19T00:10:18;9.67;;;8.67;;
1206;SDS011;593;53.184;8.216;2023-11-19T00:12:45;9.70;;;8.40;;
1206;SDS011;593;53.184;8.216;2023-11-19T00:15:15;11.40;;;9.02;;
1206;SDS011;593;53.184;8.216;2023-11-19T00:17:45;10.73;;;8.98;;
1206;SDS011;593;53.184;8.216;2023-11-19T00:20:12;11.70;;;8.65;;
1206;SDS011;593;53.184;8.216;2023-11-19T00:22:39;14.02;;;10.18;;
1206;SDS011;593;53.184;8.216;2023-11-19T00:25:06;11.45;;;10.00;;
1206;SDS011;593;53.184;8.216;2023-11-19T00:27:35;11.10;;;9.60;;
1206;SDS011;593;53.184;8.216;2023-11-19T00:30:02;11.20;;;9.50;;
1206;SDS011;593;53.184;8.216;2023-11-19T00:32:30;14.97;;;10.93;;
1206;SDS011;593;53.184;8.216;2023-11-19T00:34:57;12.40;;;10.00;;
1206;SDS011;593;53.184;8.216;2023-11-19T00:37:22;13.67;;;11.30;;
1206;SDS011;593;53.184;8.216;2023-11-19T00:39:48;12.17;;;9.23;;
1206;SDS011;593;53.184;8.216;2023-11-19T00:42:14;13.50;;;9.40;;
1206;SDS011;593;53.184;8.216;2023-11-19T00:44:39;11.13;;;9.07;;
1206;SDS011;593;53.184;8.216;2023-11-19T00:47:06;11.57;;;9.63;;
1206;SDS011;593;53.184;8.216;2023-11-19T00:49:31;11.27;;;9.13;;
1206;SDS011;593;53.184;8.216;2023-11-19T00:51:58;12.57;;;10.25;;
1206;SDS011;593;53.184;8.216;2023-11-19T00:54:24;12.38;;;9.20;;
1206;SDS011;593;53.184;8.216;2023-11-19T00:56:51;11.68;;;9.10;;
1206;SDS011;593;53.184;8.216;2023-11-19T00:59:20;12.77;;;9.88;;
1206;SDS011;593;53.184;8.216;2023-11-19T01:01:46;11.55;;;9.57;;
1206;SDS011;593;53.184;8.216;2023-11-19T01:04:19;12.02;;;9.43;;
1206;SDS011;593;53.184;8.216;2023-11-19T01:06:44;12.43;;;9.87;;
1206;SDS011;593;53.184;8.216;2023-11-19T01:09:10;13.10;;;10.90;;
1206;SDS011;593;53.184;8.216;2023-11-19T01:11:35;12.07;;;10.03;;
1206;SDS011;593;53.184;8.216;2023-11-19T01:14:01;14.73;;;10.13;;
1206;SDS011;593;53.184;8.216;2023-11-19T01:16:26;13.20;;;9.60;;
1206;SDS011;593;53.184;8.216;2023-11-19T01:18:52;11.37;;;9.40;;
1206;SDS011;593;53.184;8.216;2023-11-19T01:21:17;10.40;;;8.50;;
1206;SDS011;593;53.184;8.216;2023-11-19T01:23:43;9.90;;;8.13;;
1206;SDS011;593;53.184;8.216;2023-11-19T01:26:12;11.90;;;7.93;;
1206;SDS011;593;53.184;8.216;2023-11-19T01:28:38;9.40;;;8.07;;
1206;SDS011;593;53.184;8.216;2023-11-19T01:31:05;9.30;;;7.37;;
1206;SDS011;593;53.184;8.216;2023-11-19T01:33:30;7.97;;;7.17;;
1206;SDS011;593;53.184;8.216;2023-11-19T01:35:56;10.90;;;8.03;;
1206;SDS011;593;53.184;8.216;2023-11-19T01:38:23;10.85;;;8.25;;
1206;SDS011;593;53.184;8.216;2023-11-19T01:40:49;10.50;;;8.87;;
1206;SDS011;593;53.184;8.216;2023-11-19T01:43:33;10.63;;;8.33;;
1206;SDS011;593;53.184;8.216;2023-11-19T01:46:00;11.60;;;8.70;;
1206;SDS011;593;53.184;8.216;2023-11-19T01:48:29;10.53;;;8.13;;
1206;SDS011;593;53.184;8.216;2023-11-19T01:50:56;10.47;;;8.87;;
1206;SDS011;593;53.184;8.216;2023-11-19T01:53:22;12.77;;;9.13;;
1206;SDS011;593;53.184;8.216;2023-11-19T01:55:48;10.47;;;8.83;;
1206;SDS011;593;53.184;8.216;2023-11-19T01:58:14;10.37;;;8.00;;
1206;SDS011;593;53.184;8.216;2023-11-19T02:00:41;13.20;;;9.30;;
1206;SDS011;593;53.184;8.216;2023-11-19T02:03:06;10.53;;;9.10;;
1206;SDS011;593;53.184;8.216;2023-11-19T02:05:33;9.77;;;8.07;;
1206;SDS011;593;53.184;8.216;2023-11-19T02:08:00;11.10;;;8.60;;
1206;SDS011;593;53.184;8.216;2023-11-19T02:10:26;12.50;;;8.70;;
1206;SDS011;593;53.184;8.216;2023-11-19T02:12:51;10.73;;;8.50;;
1206;SDS011;593;53.184;8.216;2023-11-19T02:15:17;12.30;;;9.00;;
1206;SDS011;593;53.184;8.216;2023-11-19T02:17:49;12.20;;;8.03;;
1206;SDS011;593;53.184;8.216;2023-11-19T02:20:16;11.77;;;8.50;;
1206;SDS011;593;53.184;8.216;2023-11-19T02:22:42;11.30;;;8.90;;
1206;SDS011;593;53.184;8.216;2023-11-19T02:25:09;11.07;;;9.27;;
1206;SDS011;593;53.184;8.216;2023-11-19T02:27:54;15.25;;;9.60;;
1206;SDS011;593;53.184;8.216;2023-11-19T02:30:23;11.60;;;8.30;;
1206;SDS011;593;53.184;8.216;2023-11-19T02:32:54;11.68;;;8.23;;
1206;SDS011;593;53.184;8.216;2023-11-19T02:35:26;12.00;;;8.73;;
1206;SDS011;593;53.184;8.216;2023-11-19T02:37:52;13.33;;;9.40;;
1206;SDS011;593;53.184;8.216;2023-11-19T02:40:17;14.03;;;9.97;;
1206;SDS011;593;53.184;8.216;2023-11-19T02:42:43;13.93;;;9.20;;
1206;SDS011;593;53.184;8.216;2023-11-19T02:45:09;14.57;;;10.13;;
1206;SDS011;593;53.184;8.216;2023-11-19T02:47:39;14.10;;;8.90;;
1206;SDS011;593;53.184;8.216;2023-11-19T02:50:11;12.90;;;10.50;;
1206;SDS011;593;53.184;8.216;2023-11-19T02:52:40;10.60;;;8.50;;
1206;SDS011;593;53.184;8.216;2023-11-19T02:55:11;12.40;;;9.67;;
1206;SDS011;593;53.184;8.216;2023-11-19T02:57:40;18.03;;;10.37;;
1206;SDS011;593;53.184;8.216;2023-11-19T03:00:16;12.20;;;9.57;;
1206;SDS011;593;53.184;8.216;2023-11-19T03:02:43;17.83;;;10.33;;
1206;SDS011;593;53.184;8.216;2023-11-19T03:05:12;13.50;;;10.13;;
1206;SDS011;593;53.184;8.216;2023-11-19T03:07:40;16.57;;;11.20;;
1206;SDS011;593;53.184;8.216;2023-11-19T03:10:07;14.00;;;10.60;;
1206;SDS011;593;53.184;8.216;2023-11-19T03:12:34;14.53;;;10.27;;
1206;SDS011;593;53.184;8.216;2023-11-19T03:15:00;11.30;;;8.60;;
1206;SDS011;593;53.184;8.216;2023-11-19T03:17:26;18.17;;;10.53;;
1206;SDS011;593;53.184;8.216;2023-11-19T03:19:51;11.30;;;9.50;;
1206;SDS011;593;53.184;8.216;2023-11-19T03:22:17;14.77;;;10.30;;
1206;SDS011;593;53.184;8.216;2023-11-19T03:24:42;14.23;;;10.20;;
1206;SDS011;593;53.184;8.216;2023-11-19T03:27:07;14.47;;;9.90;;
1206;SDS011;593;53.184;8.216;2023-11-19T03:29:33;14.83;;;9.23;;
1206;SDS011;593;53.184;8.216;2023-11-19T03:31:59;14.13;;;9.40;;
1206;SDS011;593;53.184;8.216;2023-11-19T03:34:30;15.50;;;10.10;;
1206;SDS011;593;53.184;8.216;2023-11-19T03:36:55;16.70;;;9.87;;
1206;SDS011;593;53.184;8.216;2023-11-19T03:39:22;16.33;;;10.07;;
1206;SDS011;593;53.184;8.216;2023-11-19T03:41:49;15.80;;;9.00;;
1206;SDS011;593;53.184;8.216;2023-11-19T03:44:15;20.07;;;9.67;;
1206;SDS011;593;53.184;8.216;2023-11-19T03:46:41;13.60;;;9.10;;
1206;SDS011;593;53.184;8.216;2023-11-19T03:49:07;12.33;;;8.90;;
1206;SDS011;593;53.184;8.216;2023-11-19T03:51:32;16.17;;;8.90;;
1206;SDS011;593;53.184;8.216;2023-11-19T03:53:57;15.30;;;8.17;;
1206;SDS011;593;53.184;8.216;2023-11-19T03:56:24;20.10;;;8.13;;
1206;SDS011;593;53.184;8.216;2023-11-19T03:58:49;15.40;;;8.90;;
1206;SDS011;593;53.184;8.216;2023-11-19T04:01:15;16.73;;;8.17;;
1206;SDS011;593;53.184;8.216;2023-11-19T04:03:40;13.07;;;8.50;;
1206;SDS011;593;53.184;8.216;2023-11-19T04:06:06;13.30;;;8.43;;
1206;SDS011;593;53.184;8.216;2023-11-19T04:08:32;18.33;;;8.37;;
1206;SDS011;593;53.184;8.216;2023-11-19T04:10:58;17.77;;;8.53;;
1206;SDS011;593;53.184;8.216;2023-11-19T04:13:23;15.37;;;8.40;;
1206;SDS011;593;53.184;8.216;2023-11-19T04:15:49;19.73;;;8.50;;
1206;SDS011;593;53.184;8.216;2023-11-19T04:18:15;13.30;;;8.57;;
1206;SDS011;593;53.184;8.216;2023-11-19T04:20:41;15.77;;;7.97;;
1206;SDS011;593;53.184;8.216;2023-11-19T04:23:07;15.60;;;7.93;;
1206;SDS011;593;53.184;8.216;2023-11-19T04:25:33;18.03;;;8.27;;
1206;SDS011;593;53.184;8.216;2023-11-19T04:28:00;15.80;;;8.03;;
1206;SDS011;593;53.184;8.216;2023-11-19T04:30:25;15.87;;;7.73;;
1206;SDS011;593;53.184;8.216;2023-11-19T04:32:51;26.90;;;7.87;;
1206;SDS011;593;53.184;8.216;2023-11-19T04:35:17;20.53;;;7.30;;
1206;SDS011;593;53.184;8.216;2023-11-19T04:37:48;16.17;;;6.70;;
1206;SDS011;593;53.184;8.216;2023-11-19T04:40:14;23.03;;;8.30;;
1206;SDS011;593;53.184;8.216;2023-11-19T04:42:39;17.40;;;7.67;;
1206;SDS011;593;53.184;8.216;2023-11-19T04:45:07;18.47;;;6.40;;
1206;SDS011;593;53.184;8.216;2023-11-19T04:47:35;16.20;;;6.70;;
1206;SDS011;593;53.184;8.216;2023-11-19T04:50:01;11.53;;;6.10;;
1206;SDS011;593;53.184;8.216;2023-11-19T04:52:27;21.93;;;7.00;;
1206;SDS011;593;53.184;8.216;2023-11-19T04:54:52;11.37;;;5.93;;
1206;SDS011;593;53.184;8.216;2023-11-19T04:57:18;17.43;;;7.07;;
1206;SDS011;593;53.184;8.216;2023-11-19T04:59:43;18.77;;;6.50;;
1206;SDS011;593;53.184;8.216;2023-11-19T05:02:09;14.17;;;6.83;;
1206;SDS011;593;53.184;8.216;2023-11-19T05:04:34;24.00;;;5.10;;
1206;SDS011;593;53.184;8.216;2023-11-19T05:07:00;23.27;;;6.67;;
1206;SDS011;593;53.184;8.216;2023-11-19T05:09:25;17.00;;;6.43;;
1206;SDS011;593;53.184;8.216;2023-11-19T05:11:51;15.13;;;6.20;;
1206;SDS011;593;53.184;8.216;2023-11-19T05:14:17;18.80;;;6.07;;
1206;SDS011;593;53.184;8.216;2023-11-19T05:16:44;16.63;;;5.13;;
1206;SDS011;593;53.184;8.216;2023-11-19T05:19:10;20.67;;;5.90;;
1206;SDS011;593;53.184;8.216;2023-11-19T05:21:35;10.03;;;5.40;;
1206;SDS011;593;53.184;8.216;2023-11-19T05:24:01;13.93;;;5.63;;
1206;SDS011;593;53.184;8.216;2023-11-19T05:26:29;11.27;;;5.13;;
1206;SDS011;593;53.184;8.216;2023-11-19T05:28:55;18.60;;;6.47;;
1206;SDS011;593;53.184;8.216;2023-11-19T05:31:20;13.77;;;5.70;;
1206;SDS011;593;53.184;8.216;2023-11-19T05:33:46;13.57;;;4.53;;
1206;SDS011;593;53.184;8.216;2023-11-19T05:36:11;14.60;;;4.40;;
1206;SDS011;593;53.184;8.216;2023-11-19T05:38:37;13.67;;;4.90;;
1206;SDS011;593;53.184;8.216;2023-11-19T05:41:03;10.97;;;4.00;;
1206;SDS011;593;53.184;8.216;2023-11-19T05:43:30;12.33;;;4.10;;
1206;SDS011;593;53.184;8.216;2023-11-19T05:46:06;16.97;;;4.97;;
1206;SDS011;593;53.184;8.216;2023-11-19T05:48:33;10.47;;;3.93;;
1206;SDS011;593;53.184;8.216;2023-11-19T05:50:59;12.37;;;3.70;;
1206;SDS011;593;53.184;8.216;2023-11-19T05:53:25;10.20;;;4.30;;
1206;SDS011;593;53.184;8.216;2023-11-19T05:55:53;18.83;;;4.30;;
1206;SDS011;593;53.184;8.216;2023-11-19T05:58:25;24.47;;;4.30;;
1206;SDS011;593;53.184;8.216;2023-11-19T06:00:53;14.33;;;3.73;;
1206;SDS011;593;53.184;8.216;2023-11-19T06:03:18;14.80;;;3.60;;
1206;SDS011;593;53.184;8.216;2023-11-19T06:05:44;20.50;;;3.90;;
1206;SDS011;593;53.184;8.216;2023-11-19T06:08:11;19.20;;;4.27;;
1206;SDS011;593;53.184;8.216;2023-11-19T06:10:38;16.90;;;4.10;;
1206;SDS011;593;53.184;8.216;2023-11-19T06:13:04;16.53;;;4.10;;
1206;SDS011;593;53.184;8.216;2023-11-19T06:15:30;20.10;;;4.00;;
1206;SDS011;593;53.184;8.216;2023-11-19T06:17:56;19.67;;;3.53;;
1206;SDS011;593;53.184;8.216;2023-11-19T06:20:25;18.93;;;3.50;;
1206;SDS011;593;53.184;8.216;2023-11-19T06:22:50;22.10;;;4.40;;
1206;SDS011;593;53.184;8.216;2023-11-19T06:25:15;24.17;;;4.37;;
1206;SDS011;593;53.184;8.216;2023-11-19T06:27:44;17.63;;;4.90;;
1206;SDS011;593;53.184;8.216;2023-11-19T06:30:09;16.43;;;4.10;;
1206;SDS011;593;53.184;8.216;2023-11-19T06:32:37;20.07;;;4.10;;
1206;SDS011;593;53.184;8.216;2023-11-19T06:35:03;20.97;;;5.70;;
1206;SDS011;593;53.184;8.216;2023-11-19T06:37:30;18.43;;;3.90;;
1206;SDS011;593;53.184;8.216;2023-11-19T06:39:55;13.93;;;5.00;;
1206;SDS011;593;53.184;8.216;2023-11-19T06:42:21;12.33;;;4.70;;
1206;SDS011;593;53.184;8.216;2023-11-19T06:44:46;21.43;;;5.07;;
1206;SDS011;593;53.184;8.216;2023-11-19T06:47:13;26.47;;;4.87;;
1206;SDS011;593;53.184;8.216;2023-11-19T06:49:38;17.13;;;3.87;;
1206;SDS011;593;53.184;8.216;2023-11-19T06:52:04;25.83;;;5.00;;
1206;SDS011;593;53.184;8.216;2023-11-19T06:54:30;25.23;;;4.70;;
1206;SDS011;593;53.184;8.216;2023-11-19T06:56:56;30.40;;;3.83;;
1206;SDS011;593;53.184;8.216;2023-11-19T06:59:22;15.10;;;4.40;;
1206;SDS011;593;53.184;8.216;2023-11-19T07:01:49;14.70;;;3.10;;
1206;SDS011;593;53.184;8.216;2023-11-19T07:04:14;18.00;;;4.40;;
1206;SDS011;593;53.184;8.216;2023-11-19T07:06:40;20.73;;;4.10;;
1206;SDS011;593;53.184;8.216;2023-11-19T07:09:06;14.13;;;4.10;;
1206;SDS011;593;53.184;8.216;2023-11-19T07:11:39;21.70;;;5.93;;
1206;SDS011;593;53.184;8.216;2023-11-19T07:14:06;19.93;;;3.80;;
1206;SDS011;593;53.184;8.216;2023-11-19T07:16:33;18.70;;;4.17;;
1206;SDS011;593;53.184;8.216;2023-11-19T07:19:04;13.37;;;4.00;;
1206;SDS011;593;53.184;8.216;2023-11-19T07:21:31;23.67;;;4.87;;
1206;SDS011;593;53.184;8.216;2023-11-19T07:23:57;18.30;;;4.43;;
1206;SDS011;593;53.184;8.216;2023-11-19T07:26:23;15.53;;;4.37;;
1206;SDS011;593;53.184;8.216;2023-11-19T07:28:49;26.67;;;4.60;;
1206;SDS011;593;53.184;8.216;2023-11-19T07:31:15;13.80;;;3.50;;
1206;SDS011;593;53.184;8.216;2023-11-19T07:33:40;17.80;;;4.17;;
1206;SDS011;593;53.184;8.216;2023-11-19T07:36:09;31.10;;;4.47;;
1206;SDS011;593;53.184;8.216;2023-11-19T07:38:35;17.73;;;5.03;;
1206;SDS011;593;53.184;8.216;2023-11-19T07:41:00;19.73;;;5.30;;
1206;SDS011;593;53.184;8.216;2023-11-19T07:43:26;22.00;;;4.90;;
1206;SDS011;593;53.184;8.216;2023-11-19T07:45:51;23.33;;;4.43;;
1206;SDS011;593;53.184;8.216;2023-11-19T07:48:20;25.17;;;4.13;;
1206;SDS011;593;53.184;8.216;2023-11-19T07:50:51;13.60;;;3.43;;
1206;SDS011;593;53.184;8.216;2023-11-19T07:53:17;19.73;;;4.97;;
1206;SDS011;593;53.184;8.216;2023-11-19T07:55:43;24.80;;;4.30;;
1206;SDS011;593;53.184;8.216;2023-11-19T07:58:09;16.40;;;4.30;;
1206;SDS011;593;53.184;8.216;2023-11-19T08:00:35;15.00;;;4.10;;
1206;SDS011;593;53.184;8.216;2023-11-19T08:03:02;30.73;;;4.50;;
1206;SDS011;593;53.184;8.216;2023-11-19T08:05:28;16.83;;;4.37;;
1206;SDS011;593;53.184;8.216;2023-11-19T08:07:53;16.87;;;3.60;;
1206;SDS011;593;53.184;8.216;2023-11-19T08:10:19;15.27;;;4.80;;
1206;SDS011;593;53.184;8.216;2023-11-19T08:12:45;23.83;;;5.17;;
1206;SDS011;593;53.184;8.216;2023-11-19T08:15:10;19.87;;;4.67;;
1206;SDS011;593;53.184;8.216;2023-11-19T08:17:36;17.40;;;3.90;;
1206;SDS011;593;53.184;8.216;2023-11-19T08:20:02;30.27;;;5.13;;
1206;SDS011;593;53.184;8.216;2023-11-19T08:22:29;16.90;;;3.83;;
1206;SDS011;593;53.184;8.216;2023-11-19T08:24:55;24.23;;;4.33;;
1206;SDS011;593;53.184;8.216;2023-11-19T08:27:20;18.87;;;3.33;;
1206;SDS011;593;53.184;8.216;2023-11-19T08:29:52;28.40;;;4.60;;
1206;SDS011;593;53.184;8.216;2023-11-19T08:32:18;24.30;;;4.17;;
1206;SDS011;593;53.184;8.216;2023-11-19T08:34:44;14.40;;;3.13;;
1206;SDS011;593;53.184;8.216;2023-11-19T08:37:09;29.70;;;4.47;;
1206;SDS011;593;53.184;8.216;2023-11-19T08:39:34;20.30;;;4.73;;
1206;SDS011;593;53.184;8.216;2023-11-19T08:42:02;20.93;;;3.80;;
1206;SDS011;593;53.184;8.216;2023-11-19T08:44:28;24.57;;;3.43;;
1206;SDS011;593;53.184;8.216;2023-11-19T08:46:53;17.33;;;3.17;;
1206;SDS011;593;53.184;8.216;2023-11-19T08:49:19;18.60;;;3.97;;
1206;SDS011;593;53.184;8.216;2023-11-19T08:51:44;16.17;;;4.37;;
1206;SDS011;593;53.184;8.216;2023-11-19T08:54:10;13.53;;;3.17;;
1206;SDS011;593;53.184;8.216;2023-11-19T08:56:36;14.97;;;3.77;;
1206;SDS011;593;53.184;8.216;2023-11-19T08:59:01;12.40;;;3.40;;
1206;SDS011;593;53.184;8.216;2023-11-19T09:01:27;19.23;;;3.37;;
1206;SDS011;593;53.184;8.216;2023-11-19T09:03:53;18.47;;;3.60;;
1206;SDS011;593;53.184;8.216;2023-11-19T09:06:19;20.37;;;4.03;;
1206;SDS011;593;53.184;8.216;2023-11-19T09:08:44;17.37;;;3.43;;
1206;SDS011;593;53.184;8.216;2023-11-19T09:11:09;21.90;;;4.33;;
1206;SDS011;593;53.184;8.216;2023-11-19T09:13:35;21.57;;;5.33;;
1206;SDS011;593;53.184;8.216;2023-11-19T09:16:01;18.47;;;3.30;;
1206;SDS011;593;53.184;8.216;2023-11-19T09:18:30;21.67;;;4.00;;
1206;SDS011;593;53.184;8.216;2023-11-19T09:20:57;20.10;;;4.20;;
1206;SDS011;593;53.184;8.216;2023-11-19T09:23:22;12.90;;;3.00;;
1206;SDS011;593;53.184;8.216;2023-11-19T09:25:49;21.30;;;5.13;;
1206;SDS011;593;53.184;8.216;2023-11-19T09:28:14;16.20;;;4.20;;
1206;SDS011;593;53.184;8.216;2023-11-19T09:30:40;18.80;;;3.90;;
1206;SDS011;593;53.184;8.216;2023-11-19T09:33:05;17.13;;;4.60;;
1206;SDS011;593;53.184;8.216;2023-11-19T09:35:31;18.83;;;3.57;;
1206;SDS011;593;53.184;8.216;2023-11-19T09:37:56;29.53;;;4.10;;
1206;SDS011;593;53.184;8.216;2023-11-19T09:40:21;17.20;;;4.40;;
1206;SDS011;593;53.184;8.216;2023-11-19T09:42:47;18.10;;;2.87;;
1206;SDS011;593;53.184;8.216;2023-11-19T09:45:14;19.00;;;4.03;;
1206;SDS011;593;53.184;8.216;2023-11-19T09:47:44;20.43;;;2.70;;
1206;SDS011;593;53.184;8.216;2023-11-19T09:50:17;12.40;;;2.97;;
1206;SDS011;593;53.184;8.216;2023-11-19T09:52:44;16.27;;;3.50;;
1206;SDS011;593;53.184;8.216;2023-11-19T09:55:10;15.87;;;3.17;;
1206;SDS011;593;53.184;8.216;2023-11-19T09:57:36;14.00;;;3.67;;
1206;SDS011;593;53.184;8.216;2023-11-19T10:00:03;15.47;;;3.60;;
1206;SDS011;593;53.184;8.216;2023-11-19T10:02:33;16.97;;;3.90;;
1206;SDS011;593;53.184;8.216;2023-11-19T10:05:11;12.57;;;3.37;;
1206;SDS011;593;53.184;8.216;2023-11-19T10:07:38;10.67;;;3.00;;
1206;SDS011;593;53.184;8.216;2023-11-19T10:10:04;17.70;;;3.97;;
1206;SDS011;593;53.184;8.216;2023-11-19T10:12:30;17.73;;;4.80;;
1206;SDS011;593;53.184;8.216;2023-11-19T10:14:56;11.83;;;4.00;;
1206;SDS011;593;53.184;8.216;2023-11-19T10:17:27;19.83;;;4.30;;
1206;SDS011;593;53.184;8.216;2023-11-19T10:20:01;13.00;;;3.60;;
1206;SDS011;593;53.184;8.216;2023-11-19T10:22:31;25.33;;;3.90;;
1206;SDS011;593;53.184;8.216;2023-11-19T10:25:02;16.37;;;3.60;;
1206;SDS011;593;53.184;8.216;2023-11-19T10:27:27;24.67;;;4.07;;
1206;SDS011;593;53.184;8.216;2023-11-19T10:29:53;20.50;;;3.90;;
1206;SDS011;593;53.184;8.216;2023-11-19T10:32:18;14.33;;;3.90;;
1206;SDS011;593;53.184;8.216;2023-11-19T10:34:44;12.93;;;3.83;;
1206;SDS011;593;53.184;8.216;2023-11-19T10:37:44;11.60;;;3.63;;
1206;SDS011;593;53.184;8.216;2023-11-19T10:40:02;19.20;;;4.90;;
1206;SDS011;593;53.184;8.216;2023-11-19T10:42:30;16.63;;;2.80;;
1206;SDS011;593;53.184;8.216;2023-11-19T10:44:56;19.67;;;3.00;;
1206;SDS011;593;53.184;8.216;2023-11-19T10:47:22;15.00;;;3.63;;
1206;SDS011;593;53.184;8.216;2023-11-19T10:49:48;18.57;;;5.23;;
1206;SDS011;593;53.184;8.216;2023-11-19T10:52:15;20.63;;;4.73;;
1206;SDS011;593;53.184;8.216;2023-11-19T10:54:44;10.63;;;3.30;;
1206;SDS011;593;53.184;8.216;2023-11-19T10:57:19;22.77;;;4.10;;
1206;SDS011;593;53.184;8.216;2023-11-19T10:59:46;17.23;;;3.00;;
1206;SDS011;593;53.184;8.216;2023-11-19T11:02:13;11.87;;;3.17;;
1206;SDS011;593;53.184;8.216;2023-11-19T11:04:43;19.93;;;4.77;;
1206;SDS011;593;53.184;8.216;2023-11-19T11:07:10;21.03;;;3.57;;
1206;SDS011;593;53.184;8.216;2023-11-19T11:09:38;21.33;;;5.40;;
1206;SDS011;593;53.184;8.216;2023-11-19T11:12:04;14.70;;;3.00;;
1206;SDS011;593;53.184;8.216;2023-11-19T11:14:32;17.03;;;3.97;;
1206;SDS011;593;53.184;8.216;2023-11-19T11:17:00;19.47;;;4.00;;
1206;SDS011;593;53.184;8.216;2023-11-19T11:19:28;16.30;;;3.70;;
1206;SDS011;593;53.184;8.216;2023-11-19T11:21:53;24.03;;;3.50;;
1206;SDS011;593;53.184;8.216;2023-11-19T11:40:18;13.07;;;3.83;;
1206;SDS011;593;53.184;8.216;2023-11-19T11:42:44;13.27;;;3.70;;
1206;SDS011;593;53.184;8.216;2023-11-19T11:45:10;17.97;;;3.73;;
1206;SDS011;593;53.184;8.216;2023-11-19T11:53:13;15.47;;;2.67;;
1206;SDS011;593;53.184;8.216;2023-11-19T11:58:13;15.80;;;3.53;;
1206;SDS011;593;53.184;8.216;2023-11-19T12:00:40;23.43;;;4.17;;
1206;SDS011;593;53.184;8.216;2023-11-19T12:03:07;15.63;;;3.80;;
1206;SDS011;593;53.184;8.216;2023-11-19T12:05:38;9.80;;;3.70;;
1206;SDS011;593;53.184;8.216;2023-11-19T12:08:06;27.57;;;3.67;;
1206;SDS011;593;53.184;8.216;2023-11-19T12:10:45;20.73;;;4.50;;
1206;SDS011;593;53.184;8.216;2023-11-19T12:13:17;7.40;;;2.43;;
1206;SDS011;593;53.184;8.216;2023-11-19T12:18:23;15.70;;;2.60;;
1206;SDS011;593;53.184;8.216;2023-11-19T12:20:52;13.57;;;2.80;;
1206;SDS011;593;53.184;8.216;2023-11-19T12:23:17;17.27;;;2.40;;
1206;SDS011;593;53.184;8.216;2023-11-19T12:25:43;14.90;;;2.40;;
1206;SDS011;593;53.184;8.216;2023-11-19T12:28:16;8.23;;;2.33;;
1206;SDS011;593;53.184;8.216;2023-11-19T12:30:42;9.33;;;1.93;;
1206;SDS011;593;53.184;8.216;2023-11-19T12:33:09;9.23;;;2.10;;
1206;SDS011;593;53.184;8.216;2023-11-19T12:38:07;6.20;;;2.17;;
1206;SDS011;593;53.184;8.216;2023-11-19T12:40:33;9.57;;;2.93;;
1206;SDS011;593;53.184;8.216;2023-11-19T12:42:58;9.77;;;2.90;;
1206;SDS011;593;53.184;8.216;2023-11-19T12:45:27;11.73;;;1.70;;
1206;SDS011;593;53.184;8.216;2023-11-19T12:48:09;10.57;;;2.93;;
1206;SDS011;593;53.184;8.216;2023-11-19T12:50:50;11.57;;;2.40;;
1206;SDS011;593;53.184;8.216;2023-11-19T12:53:21;11.83;;;2.00;;
1206;SDS011;593;53.184;8.216;2023-11-19T12:55:47;8.47;;;1.70;;
1206;SDS011;593;53.184;8.216;2023-11-19T12:58:29;6.40;;;1.30;;
1206;SDS011;593;53.184;8.216;2023-11-19T13:01:06;5.90;;;1.47;;
1206;SDS011;593;53.184;8.216;2023-11-19T13:03:32;10.33;;;1.47;;
1206;SDS011;593;53.184;8.216;2023-11-19T13:06:02;7.90;;;1.40;;
1206;SDS011;593;53.184;8.216;2023-11-19T13:08:41;5.13;;;1.10;;
1206;SDS011;593;53.184;8.216;2023-11-19T13:11:09;4.37;;;1.10;;
1206;SDS011;593;53.184;8.216;2023-11-19T13:13:54;4.73;;;1.20;;
1206;SDS011;593;53.184;8.216;2023-11-19T13:16:24;6.70;;;1.73;;
1206;SDS011;593;53.184;8.216;2023-11-19T13:18:51;2.23;;;1.07;;
1206;SDS011;593;53.184;8.216;2023-11-19T13:21:16;7.10;;;1.10;;
1206;SDS011;593;53.184;8.216;2023-11-19T13:23:42;9.23;;;1.93;;
1206;SDS011;593;53.184;8.216;2023-11-19T13:26:08;4.80;;;1.20;;
1206;SDS011;593;53.184;8.216;2023-11-19T13:28:34;8.33;;;1.80;;
1206;SDS011;593;53.184;8.216;2023-11-19T13:30:59;5.63;;;1.80;;
1206;SDS011;593;53.184;8.216;2023-11-19T13:33:25;9.60;;;1.83;;
1206;SDS011;593;53.184;8.216;2023-11-19T13:35:51;4.03;;;1.57;;
1206;SDS011;593;53.184;8.216;2023-11-19T13:38:17;17.33;;;1.77;;
1206;SDS011;593;53.184;8.216;2023-11-19T13:40:42;9.17;;;1.93;;
1206;SDS011;593;53.184;8.216;2023-11-19T13:43:07;12.23;;;2.23;;
1206;SDS011;593;53.184;8.216;2023-11-19T13:45:33;14.73;;;2.10;;
1206;SDS011;593;53.184;8.216;2023-11-19T13:47:59;16.87;;;2.00;;
1206;SDS011;593;53.184;8.216;2023-11-19T13:50:24;10.37;;;1.90;;
1206;SDS011;593;53.184;8.216;2023-11-19T13:52:50;11.77;;;2.73;;
1206;SDS011;593;53.184;8.216;2023-11-19T13:55:16;8.47;;;2.10;;
1206;SDS011;593;53.184;8.216;2023-11-19T13:57:42;9.37;;;1.87;;
1206;SDS011;593;53.184;8.216;2023-11-19T14:00:09;10.73;;;2.20;;
1206;SDS011;593;53.184;8.216;2023-11-19T14:02:42;13.40;;;2.53;;
1206;SDS011;593;53.184;8.216;2023-11-19T14:05:11;15.87;;;2.53;;
1206;SDS011;593;53.184;8.216;2023-11-19T14:07:40;9.83;;;2.07;;
1206;SDS011;593;53.184;8.216;2023-11-19T14:10:06;15.00;;;2.80;;
1206;SDS011;593;53.184;8.216;2023-11-19T14:12:32;10.83;;;3.70;;
1206;SDS011;593;53.184;8.216;2023-11-19T14:14:58;9.50;;;2.27;;
1206;SDS011;593;53.184;8.216;2023-11-19T14:17:23;10.80;;;2.57;;
1206;SDS011;593;53.184;8.216;2023-11-19T14:19:50;14.83;;;2.87;;
1206;SDS011;593;53.184;8.216;2023-11-19T14:22:16;18.20;;;3.20;;
1206;SDS011;593;53.184;8.216;2023-11-19T14:24:41;8.10;;;1.90;;
1206;SDS011;593;53.184;8.216;2023-11-19T14:27:07;9.27;;;1.77;;
1206;SDS011;593;53.184;8.216;2023-11-19T14:29:34;10.17;;;2.20;;
1206;SDS011;593;53.184;8.216;2023-11-19T14:32:00;11.67;;;2.30;;
1206;SDS011;593;53.184;8.216;2023-11-19T14:34:26;13.00;;;2.73;;
1206;SDS011;593;53.184;8.216;2023-11-19T14:36:52;6.57;;;2.13;;
1206;SDS011;593;53.184;8.216;2023-11-19T14:39:18;7.57;;;1.80;;
1206;SDS011;593;53.184;8.216;2023-11-19T14:41:44;10.87;;;2.40;;
1206;SDS011;593;53.184;8.216;2023-11-19T14:44:09;5.70;;;1.40;;
1206;SDS011;593;53.184;8.216;2023-11-19T14:46:35;9.13;;;1.93;;
1206;SDS011;593;53.184;8.216;2023-11-19T14:49:00;14.50;;;3.93;;
1206;SDS011;593;53.184;8.216;2023-11-19T14:51:29;7.27;;;2.10;;
1206;SDS011;593;53.184;8.216;2023-11-19T14:53:55;23.97;;;13.90;;
1206;SDS011;593;53.184;8.216;2023-11-19T14:56:21;24.73;;;16.13;;
1206;SDS011;593;53.184;8.216;2023-11-19T14:58:46;29.63;;;17.23;;
1206;SDS011;593;53.184;8.216;2023-11-19T15:01:12;17.27;;;8.07;;
1206;SDS011;593;53.184;8.216;2023-11-19T15:03:41;13.73;;;4.53;;
1206;SDS011;593;53.184;8.216;2023-11-19T15:06:06;8.90;;;2.40;;
1206;SDS011;593;53.184;8.216;2023-11-19T15:08:32;9.67;;;1.90;;
1206;SDS011;593;53.184;8.216;2023-11-19T15:10:58;8.47;;;2.40;;
1206;SDS011;593;53.184;8.216;2023-11-19T15:13:26;7.23;;;1.60;;
1206;SDS011;593;53.184;8.216;2023-11-19T15:15:52;10.83;;;2.00;;
1206;SDS011;593;53.184;8.216;2023-11-19T15:18:21;9.13;;;1.90;;
1206;SDS011;593;53.184;8.216;2023-11-19T15:20:48;7.70;;;1.67;;
1206;SDS011;593;53.184;8.216;2023-11-19T15:23:13;8.60;;;1.93;;
1206;SDS011;593;53.184;8.216;2023-11-19T15:25:40;13.60;;;2.60;;
1206;SDS011;593;53.184;8.216;2023-11-19T15:28:08;12.30;;;2.37;;
1206;SDS011;593;53.184;8.216;2023-11-19T15:30:34;9.73;;;2.37;;
1206;SDS011;593;53.184;8.216;2023-11-19T15:33:00;7.33;;;2.00;;
1206;SDS011;593;53.184;8.216;2023-11-19T15:35:25;10.53;;;3.10;;
1206;SDS011;593;53.184;8.216;2023-11-19T15:37:50;9.20;;;1.87;;
1206;SDS011;593;53.184;8.216;2023-11-19T15:40:16;12.80;;;2.60;;
1206;SDS011;593;53.184;8.216;2023-11-19T15:42:41;16.47;;;2.93;;
1206;SDS011;593;53.184;8.216;2023-11-19T15:45:11;14.00;;;2.97;;